Vigan, Philippines
Current Conditions -  °F | °C
As of 3:00 PM on Saturday 20 Dec 2014 (Local Time) from RPLI Reporting Station
Broken Clouds Broken Clouds  
Wind Chill: 82°   Ceiling: 10000
Heat Index: 87°   Visibility: 6mi
Dew Point: 72°   Wind: 14mph
Humidity: 70%   Direction: 20°NNE
Pressure: 29.85"   Gusts: 25mph
Location:  17.56°N, 120.37°E
Report Text: RPLI 200700Z 02012G22KT 9999 FEW019 BKN100 28/22 Q1011 NOSIGRMK A2985
Loading
Personal Weather Stations






























Interactive Weather Map New forecast layout! Learn more

10-Day Weather Forecast

Advertisements
Track Severe Weather on mobile